createdAt,value
2022-12-03T00:00:12.903Z,38.13
2022-12-03T00:02:18.581Z,40.22
2022-12-03T00:04:23.756Z,40.60
2022-12-03T00:06:34.203Z,44.30
2022-12-03T00:08:38.391Z,42.35
2022-12-03T00:10:42.919Z,40.63
2022-12-03T00:12:47.227Z,42.15
2022-12-03T00:14:51.589Z,41.22
2022-12-03T00:16:56.570Z,40.70
2022-12-03T00:19:00.348Z,42.00
2022-12-03T00:21:04.700Z,41.33
2022-12-03T00:23:09.679Z,43.65
2022-12-03T00:25:13.969Z,42.05
2022-12-03T00:27:18.222Z,38.75
2022-12-03T00:29:23.239Z,41.58
2022-12-03T00:31:28.165Z,42.30
2022-12-03T00:33:39.689Z,43.83
2022-12-03T00:35:44.490Z,44.85
2022-12-03T00:37:48.677Z,44.55
2022-12-03T00:39:52.827Z,41.38
2022-12-03T00:41:57.015Z,47.08
2022-12-03T00:44:01.222Z,47.03
2022-12-03T00:46:05.467Z,48.80
2022-12-03T00:48:09.714Z,48.20
2022-12-03T00:50:14.213Z,48.28
2022-12-03T00:52:17.908Z,40.58
2022-12-03T00:54:25.649Z,43.10
2022-12-03T00:58:38.014Z,42.35
2022-12-03T01:00:42.252Z,48.70
2022-12-03T01:02:47.180Z,48.55
2022-12-03T01:04:51.714Z,51.22
2022-12-03T01:06:56.145Z,45.72
2022-12-03T01:08:59.874Z,50.75
2022-12-03T01:11:04.150Z,52.22
2022-12-03T01:13:08.307Z,41.05
2022-12-03T01:15:12.963Z,46.25
2022-12-03T01:17:17.252Z,45.50
2022-12-03T01:19:22.787Z,48.45
2022-12-03T01:21:26.976Z,34.63
2022-12-03T01:23:31.182Z,38.03
2022-12-03T01:25:36.225Z,37.80
2022-12-03T01:27:40.378Z,39.65
2022-12-03T01:29:44.317Z,37.22
2022-12-03T01:32:07.237Z,37.35
2022-12-03T01:34:10.927Z,38.85
2022-12-03T01:36:15.173Z,41.28
2022-12-03T01:38:19.412Z,40.25
2022-12-03T01:40:24.245Z,47.30
2022-12-03T01:42:42.254Z,42.28
2022-12-03T01:44:47.185Z,39.97
2022-12-03T01:46:52.385Z,45.72
2022-12-03T01:48:58.276Z,47.28
2022-12-03T01:51:02.551Z,44.63
2022-12-03T01:53:07.094Z,35.90
2022-12-03T01:55:17.088Z,45.60
2022-12-03T01:57:36.005Z,44.45
2022-12-03T01:59:41.746Z,38.42
2022-12-03T02:01:46.054Z,40.78
2022-12-03T02:03:49.791Z,44.13
2022-12-03T02:05:55.207Z,25.33
2022-12-03T02:08:00.819Z,44.22
2022-12-03T02:10:06.004Z,38.17
2022-12-03T02:12:10.173Z,41.25
2022-12-03T02:14:21.231Z,35.17
2022-12-03T02:16:25.607Z,36.75
2022-12-03T02:18:29.918Z,46.58
2022-12-03T02:20:38.928Z,45.45
2022-12-03T02:22:54.399Z,45.00
2022-12-03T02:25:06.840Z,52.22
2022-12-03T02:27:11.060Z,45.30
2022-12-03T02:29:15.333Z,42.17
2022-12-03T02:31:19.644Z,39.13
2022-12-03T02:33:23.307Z,43.58
2022-12-03T02:35:32.515Z,40.53
2022-12-03T02:37:38.508Z,42.88
2022-12-03T02:39:45.237Z,40.72
2022-12-03T02:42:08.517Z,42.38
2022-12-03T02:44:12.504Z,45.78
2022-12-03T02:46:16.250Z,42.55
2022-12-03T02:48:36.593Z,49.58
2022-12-03T02:50:44.832Z,45.88
2022-12-03T02:52:50.191Z,41.88
2022-12-03T02:54:54.809Z,39.70
2022-12-03T02:56:59.251Z,37.20
2022-12-03T02:59:05.504Z,40.83
2022-12-03T03:01:11.694Z,40.70
2022-12-03T03:03:15.879Z,41.22
2022-12-03T03:05:23.790Z,38.05
2022-12-03T03:07:28.160Z,41.58
2022-12-03T03:09:32.046Z,41.30
2022-12-03T03:11:36.270Z,38.05
2022-12-03T03:13:41.520Z,42.15
2022-12-03T03:15:46.311Z,43.35
2022-12-03T03:17:50.637Z,42.38
2022-12-03T03:19:54.834Z,42.33
2022-12-03T03:21:59.292Z,42.67
2022-12-03T03:24:03.499Z,42.40
2022-12-03T03:26:13.218Z,42.25
2022-12-03T03:28:18.753Z,40.90
2022-12-03T03:30:22.906Z,38.83
2022-12-03T03:32:28.795Z,42.08
2022-12-03T03:34:35.202Z,40.00
2022-12-03T03:36:39.253Z,41.70
2022-12-03T03:38:44.034Z,35.60
2022-12-03T03:40:49.110Z,42.97
2022-12-03T03:42:53.891Z,41.80
2022-12-03T03:44:59.222Z,38.00
2022-12-03T03:47:04.082Z,41.42
2022-12-03T03:49:09.220Z,40.78
2022-12-03T03:51:14.810Z,41.90
2022-12-03T03:53:19.883Z,38.20
2022-12-03T03:55:24.952Z,37.55
2022-12-03T03:57:29.451Z,43.75
2022-12-03T03:59:33.851Z,45.67
2022-12-03T04:01:39.863Z,50.60
2022-12-03T04:03:44.965Z,42.03
2022-12-03T04:05:53.100Z,45.47
2022-12-03T04:07:57.781Z,44.00
2022-12-03T04:10:02.819Z,46.22
2022-12-03T04:12:26.738Z,39.80
2022-12-03T04:14:31.141Z,39.22
2022-12-03T04:16:36.161Z,44.55
2022-12-03T04:18:46.943Z,43.50
2022-12-03T04:20:51.272Z,36.83
2022-12-03T04:22:55.541Z,30.02
2022-12-03T04:25:20.281Z,39.53
2022-12-03T04:27:43.353Z,35.05
2022-12-03T04:29:47.730Z,31.90
2022-12-03T04:32:11.542Z,38.58
2022-12-03T04:34:33.580Z,39.28
2022-12-03T04:36:38.736Z,42.97
2022-12-03T04:38:43.040Z,38.30
2022-12-03T04:41:06.260Z,38.33
2022-12-03T04:43:10.560Z,39.60
2022-12-03T04:45:15.500Z,33.85
2022-12-03T04:47:21.300Z,39.80
2022-12-03T04:49:25.901Z,39.88
2022-12-03T04:51:30.194Z,40.70
2022-12-03T04:53:36.235Z,39.88
2022-12-03T04:55:40.804Z,36.80
2022-12-03T04:57:45.150Z,38.33
2022-12-03T04:59:50.142Z,32.08
2022-12-03T05:01:55.116Z,36.45
2022-12-03T05:03:59.511Z,39.53
2022-12-03T05:06:04.522Z,37.55
2022-12-03T05:08:09.199Z,33.22
2022-12-03T05:10:13.531Z,33.55
2022-12-03T05:12:17.900Z,40.33
2022-12-03T05:14:22.255Z,40.45
2022-12-03T05:16:26.631Z,41.33
2022-12-03T05:18:31.081Z,38.30
2022-12-03T05:20:51.337Z,41.67
2022-12-03T05:22:57.440Z,38.40
2022-12-03T05:25:02.110Z,39.15
2022-12-03T05:27:07.120Z,39.47
2022-12-03T05:29:10.960Z,42.92
2022-12-03T05:31:16.040Z,41.10
2022-12-03T05:33:21.339Z,41.50
2022-12-03T05:35:26.589Z,42.72
2022-12-03T05:37:31.510Z,39.55
2022-12-03T05:39:36.400Z,39.10
2022-12-03T05:41:59.820Z,38.53
2022-12-03T05:44:04.219Z,39.30
2022-12-03T05:46:08.762Z,41.03
2022-12-03T05:48:16.851Z,41.97
2022-12-03T05:50:22.523Z,41.97
2022-12-03T05:52:27.421Z,41.20
2022-12-03T05:54:33.510Z,41.38
2022-12-03T05:56:37.791Z,38.17
2022-12-03T05:58:42.109Z,36.85
2022-12-03T06:00:45.911Z,40.10
2022-12-03T06:02:50.526Z,41.00
2022-12-03T06:04:55.414Z,44.65
2022-12-03T06:07:00.150Z,40.03
2022-12-03T06:09:05.141Z,45.75
2022-12-03T06:11:10.251Z,41.75
2022-12-03T06:13:15.279Z,46.78
2022-12-03T06:15:20.324Z,42.97
2022-12-03T06:17:24.690Z,46.97
2022-12-03T06:19:29.653Z,43.55
2022-12-03T06:21:33.978Z,46.45
2022-12-03T06:23:39.520Z,41.20
2022-12-03T06:25:43.820Z,44.63
2022-12-03T06:27:47.870Z,47.97
2022-12-03T06:29:51.650Z,51.78
2022-12-03T06:31:56.071Z,43.30
2022-12-03T06:34:00.350Z,45.55
2022-12-03T06:36:04.673Z,43.15
2022-12-03T06:38:09.001Z,51.00
2022-12-03T06:40:14.086Z,45.97
2022-12-03T06:42:17.920Z,45.83
2022-12-03T06:44:22.261Z,43.65
2022-12-03T06:46:26.703Z,48.58
2022-12-03T06:48:31.831Z,46.83
2022-12-03T06:50:36.200Z,49.22
2022-12-03T06:52:40.495Z,48.92
2022-12-03T06:54:44.204Z,41.08
2022-12-03T06:56:48.722Z,48.80
2022-12-03T06:58:53.781Z,41.83
2022-12-03T07:00:57.019Z,46.38
2022-12-03T07:03:01.378Z,47.13
2022-12-03T07:05:06.172Z,48.42
2022-12-03T07:07:11.231Z,48.47
2022-12-03T07:09:18.680Z,51.00
2022-12-03T07:11:35.812Z,47.35
2022-12-03T07:13:40.750Z,48.22
2022-12-03T07:15:45.779Z,47.75
2022-12-03T07:17:50.752Z,47.80
2022-12-03T07:19:55.204Z,48.30
2022-12-03T07:22:00.156Z,47.15
2022-12-03T07:24:04.481Z,44.58
2022-12-03T07:26:09.470Z,54.45
2022-12-03T07:28:14.139Z,53.28
2022-12-03T07:30:18.972Z,50.60
2022-12-03T07:32:23.972Z,51.33
2022-12-03T07:34:28.957Z,48.20
2022-12-03T07:36:33.030Z,50.53
2022-12-03T07:38:38.562Z,51.17
2022-12-03T07:40:42.569Z,52.72
2022-12-03T07:42:47.340Z,61.35
2022-12-03T07:44:52.634Z,58.15
2022-12-03T07:46:56.897Z,56.15
2022-12-03T07:49:01.821Z,56.17
2022-12-03T07:51:06.173Z,55.03
2022-12-03T07:53:10.511Z,59.00
2022-12-03T07:55:15.250Z,54.15
2022-12-03T07:57:19.524Z,59.55
2022-12-03T07:59:24.200Z,55.67
2022-12-03T08:01:29.360Z,54.17
2022-12-03T08:03:33.273Z,54.85
2022-12-03T08:05:37.681Z,57.97
2022-12-03T08:07:42.941Z,58.95
2022-12-03T08:09:47.431Z,55.97
2022-12-03T08:11:52.631Z,52.97
2022-12-03T08:13:57.169Z,56.90
2022-12-03T08:16:09.498Z,55.70
2022-12-03T08:18:18.820Z,56.65
2022-12-03T08:20:29.131Z,58.38
2022-12-03T08:22:33.511Z,56.85
2022-12-03T08:24:38.111Z,57.70
2022-12-03T08:26:42.001Z,59.20
2022-12-03T08:28:47.120Z,56.80
2022-12-03T08:31:24.773Z,60.38
2022-12-03T08:33:37.071Z,52.47
2022-12-03T08:35:43.769Z,53.28
2022-12-03T08:37:48.170Z,57.88
2022-12-03T08:39:56.890Z,54.72
2022-12-03T08:42:47.311Z,53.33
2022-12-03T08:44:52.651Z,53.15
2022-12-03T08:47:13.017Z,54.08
2022-12-03T08:49:20.060Z,49.15
2022-12-03T08:51:29.151Z,53.42
2022-12-03T08:54:08.109Z,51.95
2022-12-03T08:56:28.129Z,52.17
2022-12-03T08:58:46.942Z,48.13
2022-12-03T09:01:13.635Z,50.17
2022-12-03T09:03:21.570Z,53.42
2022-12-03T17:31:42.392Z,50.42
2022-12-03T17:33:45.502Z,63.38
2022-12-03T17:35:47.970Z,52.78
2022-12-03T17:37:50.591Z,56.88
2022-12-03T17:39:53.303Z,55.33
2022-12-03T17:41:56.762Z,87.43
2022-12-03T17:43:59.360Z,65.10
2022-12-03T17:46:02.761Z,68.88
2022-12-03T17:48:06.230Z,77.90
2022-12-03T17:50:10.001Z,74.35
2022-12-03T17:52:12.550Z,64.15
2022-12-03T17:54:15.131Z,64.68
2022-12-03T17:56:17.660Z,65.93
2022-12-03T17:58:20.230Z,68.03
2022-12-03T18:00:23.080Z,62.85
2022-12-03T18:02:25.480Z,67.03
2022-12-03T18:04:28.088Z,64.85
2022-12-03T18:06:30.941Z,105.30
2022-12-03T18:08:33.804Z,67.28
2022-12-03T18:10:36.683Z,82.03
2022-12-03T18:12:39.301Z,81.28
2022-12-03T18:14:41.930Z,80.57
2022-12-03T18:16:44.622Z,77.60
2022-12-03T18:18:48.094Z,69.95
2022-12-03T18:20:54.150Z,74.22
2022-12-03T18:22:58.101Z,72.43
2022-12-03T18:25:01.910Z,70.63
2022-12-03T18:27:04.763Z,68.50
2022-12-03T18:29:07.441Z,74.50
2022-12-03T18:31:17.069Z,68.97
2022-12-03T18:33:19.671Z,68.35
2022-12-03T18:35:22.819Z,68.45
2022-12-03T18:37:30.349Z,59.53
2022-12-03T18:39:37.651Z,58.90
2022-12-03T18:41:40.281Z,58.83
2022-12-03T18:43:43.562Z,58.13
2022-12-03T18:45:46.299Z,61.42
2022-12-03T18:47:49.048Z,62.03
2022-12-03T18:49:52.066Z,59.45
2022-12-03T18:51:59.341Z,61.00
2022-12-03T18:55:36.922Z,59.90
2022-12-03T18:57:39.541Z,60.70
2022-12-03T18:59:42.260Z,59.05
2022-12-03T19:01:45.419Z,61.08
2022-12-03T19:03:49.103Z,60.28
2022-12-03T19:05:51.711Z,55.72
2022-12-03T19:07:56.232Z,58.80
2022-12-03T19:09:59.480Z,55.13
2022-12-03T19:12:02.350Z,56.83
2022-12-03T19:14:04.940Z,58.35
2022-12-03T19:16:10.267Z,56.63
2022-12-03T19:18:12.814Z,58.13
2022-12-03T19:20:15.849Z,59.42
2022-12-03T19:22:18.800Z,59.53
2022-12-03T19:24:25.515Z,66.30
2022-12-03T19:26:28.670Z,63.85
2022-12-03T19:28:31.846Z,63.50
2022-12-03T19:30:34.620Z,62.67
2022-12-03T19:32:37.540Z,61.72
2022-12-03T19:34:44.053Z,61.20
2022-12-03T19:36:47.887Z,60.80
2022-12-03T19:38:56.922Z,61.90
2022-12-03T19:41:08.691Z,62.17
2022-12-03T19:43:11.339Z,64.88
2022-12-03T19:45:13.812Z,65.75
2022-12-03T19:47:16.441Z,62.08
2022-12-03T19:49:21.359Z,67.40
2022-12-03T19:51:34.573Z,65.47
2022-12-03T19:53:38.731Z,66.03
2022-12-03T19:55:41.499Z,65.07
2022-12-03T19:57:44.192Z,60.65
2022-12-03T19:59:46.891Z,64.85
2022-12-03T20:01:49.426Z,67.07
2022-12-03T20:03:55.429Z,67.32
2022-12-03T20:06:01.149Z,69.97
2022-12-03T20:08:04.433Z,72.45
2022-12-03T20:10:07.720Z,75.15
2022-12-03T20:12:10.290Z,73.07
2022-12-03T20:14:16.350Z,67.97
2022-12-03T20:16:19.452Z,69.32
2022-12-03T20:18:22.481Z,72.63
2022-12-03T20:20:25.620Z,72.70
2022-12-03T20:22:28.542Z,69.47
2022-12-03T20:24:31.309Z,68.40
2022-12-03T20:26:34.151Z,67.40
2022-12-03T20:28:36.860Z,64.15
2022-12-03T20:30:39.353Z,64.53
2022-12-03T20:32:45.525Z,66.78
2022-12-03T20:34:49.179Z,78.07
2022-12-03T20:36:51.620Z,92.75
2022-12-03T20:38:56.572Z,62.15
2022-12-03T20:41:16.713Z,75.25
2022-12-03T20:43:19.381Z,71.55
2022-12-03T20:45:22.146Z,70.90
2022-12-03T20:47:26.831Z,70.78
2022-12-03T20:49:29.560Z,63.97
2022-12-03T20:51:32.213Z,69.97
2022-12-03T20:53:35.633Z,68.07
2022-12-03T20:55:38.159Z,69.57
2022-12-03T20:57:40.991Z,74.97
2022-12-03T20:59:43.460Z,73.55
2022-12-03T21:01:46.381Z,75.13
2022-12-03T21:03:50.370Z,73.18
2022-12-03T21:05:59.711Z,79.60
2022-12-03T21:08:02.232Z,74.90
2022-12-03T21:10:05.311Z,86.32
2022-12-03T21:12:08.310Z,70.28
2022-12-03T21:14:11.708Z,65.35
2022-12-03T21:16:17.953Z,69.10
2022-12-03T21:18:20.981Z,64.20
2022-12-03T21:20:23.660Z,71.28
2022-12-03T21:22:26.410Z,75.50
2022-12-03T21:24:29.331Z,80.70
2022-12-03T21:26:33.322Z,80.25
2022-12-03T21:28:36.292Z,71.95
2022-12-03T21:30:40.749Z,87.25
2022-12-03T21:32:43.731Z,85.63
2022-12-03T21:34:46.420Z,70.35
2022-12-03T21:36:49.386Z,72.85
2022-12-03T21:38:52.240Z,74.80
2022-12-03T21:40:55.467Z,64.43
2022-12-03T21:42:58.091Z,64.93
2022-12-03T21:45:00.572Z,65.82
2022-12-03T21:47:09.833Z,65.43
2022-12-03T21:49:17.401Z,77.05
2022-12-03T21:51:20.992Z,63.63
2022-12-03T21:53:23.731Z,62.13
2022-12-03T21:55:26.451Z,58.45
2022-12-03T21:59:07.131Z,59.80
2022-12-03T22:01:20.442Z,65.10
2022-12-03T22:03:23.171Z,69.95
2022-12-03T22:05:25.773Z,68.85
2022-12-03T22:07:28.340Z,74.03
2022-12-03T22:09:34.230Z,67.97
